Time;durP1;ratioP1;P1;durP2;ratioP2;P2;SDS_P1;SDS_P2;PMS_P1;PMS_P2;Temp;Humidity;BMP_temperature;BMP_pressure;BME280_temperature;BME280_humidity;BME280_pressure;Samples;Min_cycle;Max_cycle;Signal;HPM_P1;HPM_P2
2023/08/21 00:02:20;;;;;;;16.77;14.90;;;26.00;99.90;;;;;;5094491;28;20099;-52
2023/08/21 00:04:46;;;;;;;17.83;15.68;;;25.90;99.90;;;;;;5075306;28;20032;-51
2023/08/21 00:07:12;;;;;;;19.33;15.30;;;25.90;99.90;;;;;;5094242;28;20490;-53
2023/08/21 00:09:38;;;;;;;18.27;15.70;;;25.90;99.90;;;;;;5094579;28;20103;-52
2023/08/21 00:12:04;;;;;;;15.13;13.43;;;25.90;99.90;;;;;;5075333;28;20115;-51
2023/08/21 00:14:30;;;;;;;18.10;16.13;;;25.90;99.90;;;;;;5094106;28;20057;-52
2023/08/21 00:16:56;;;;;;;15.85;14.45;;;25.80;99.90;;;;;;5058478;28;20035;-52
2023/08/21 00:19:21;;;;;;;15.75;14.32;;;25.80;99.90;;;;;;5092568;28;20478;-51
2023/08/21 00:21:47;;;;;;;16.73;14.80;;;;;;;;;;5093701;28;20028;-52
2023/08/21 00:24:13;;;;;;;18.83;14.20;;;25.60;99.90;;;;;;5094053;28;20039;-52
2023/08/21 00:26:39;;;;;;;16.42;13.88;;;25.50;99.90;;;;;;5093997;28;20028;-52
2023/08/21 00:29:05;;;;;;;16.35;14.80;;;;;;;;;;5093950;28;20066;-52
2023/08/21 00:31:31;;;;;;;15.70;14.07;;;25.20;99.90;;;;;;5091870;28;20032;-51
2023/08/21 00:33:57;;;;;;;16.75;13.95;;;;;;;;;;5093837;28;20180;-51
2023/08/21 00:36:22;;;;;;;15.73;14.02;;;25.30;99.90;;;;;;5094023;28;20020;-51
2023/08/21 00:38:48;;;;;;;16.23;14.63;;;25.30;99.90;;;;;;5093724;28;20437;-52
2023/08/21 00:41:14;;;;;;;16.80;15.27;;;25.20;99.90;;;;;;5074848;28;20482;-51
2023/08/21 00:43:40;;;;;;;17.27;15.48;;;25.20;99.90;;;;;;5074886;28;20032;-51
2023/08/21 00:46:06;;;;;;;15.90;14.27;;;25.30;99.90;;;;;;5091505;28;20135;-51
2023/08/21 00:48:32;;;;;;;16.95;15.35;;;25.30;99.90;;;;;;5093423;28;20159;-52
2023/08/21 00:50:58;;;;;;;16.73;15.13;;;25.30;99.90;;;;;;5093937;28;20402;-52
2023/08/21 00:53:24;;;;;;;17.55;15.80;;;25.20;99.90;;;;;;5074585;28;20093;-52
2023/08/21 00:55:50;;;;;;;16.45;15.02;;;25.20;99.90;;;;;;5081614;28;20035;-51
2023/08/21 00:58:36;;;;;;;17.83;16.08;;;25.20;99.90;;;;;;5091242;28;20120;-52
2023/08/21 01:01:04;;;;;;;16.52;14.82;;;25.10;99.90;;;;;;5074241;28;20032;-51
2023/08/21 01:03:30;;;;;;;17.17;15.38;;;25.10;99.90;;;;;;5091162;28;20565;-51
2023/08/21 01:05:56;;;;;;;16.70;14.93;;;25.10;99.90;;;;;;5091160;28;20051;-51
2023/08/21 01:09:00;;;;;;;17.50;15.68;;;25.00;99.90;;;;;;5091161;28;20047;-52
2023/08/21 01:12:04;;;;;;;17.58;15.32;;;25.00;99.90;;;;;;5084982;28;20523;-51
2023/08/21 01:14:47;;;;;;;17.77;15.98;;;25.00;99.90;;;;;;5070685;28;20105;-51
2023/08/21 01:17:14;;;;;;;15.73;14.18;;;;;;;;;;5090888;28;20119;-52
2023/08/21 01:19:44;;;;;;;19.95;14.93;;;;;;;;;;5090847;28;20070;-51
2023/08/21 01:22:11;;;;;;;19.70;15.35;;;;;;;;;;5090993;28;20024;-51
2023/08/21 01:24:38;;;;;;;15.65;14.10;;;;;;;;;;5091075;28;20036;-51
2023/08/21 01:27:04;;;;;;;16.90;15.20;;;;;;;;;;5090863;28;20061;-51
2023/08/21 01:29:30;;;;;;;16.05;14.50;;;;;;;;;;5090946;28;20430;-51
2023/08/21 01:32:23;;;;;;;16.67;14.98;;;;;;;;;;5090912;28;20066;-51
2023/08/21 01:34:49;;;;;;;17.85;15.00;;;;;;;;;;5077980;28;20094;-51
2023/08/21 01:37:16;;;;;;;15.48;13.88;;;;;;;;;;5117438;28;20027;-51
2023/08/21 01:39:42;;;;;;;16.58;14.90;;;;;;;;;;5117557;28;20032;-51
2023/08/21 01:42:08;;;;;;;15.32;13.93;;;;;;;;;;5117816;28;20039;-51
2023/08/21 01:44:34;;;;;;;16.73;14.98;;;;;;;;;;5117321;28;20072;-51
2023/08/21 01:47:00;;;;;;;16.23;14.77;;;;;;;;;;5117339;28;20051;-51
2023/08/21 01:49:26;;;;;;;16.83;15.23;;;;;;;;;;5117154;28;20027;-51
2023/08/21 01:51:52;;;;;;;16.60;14.90;;;24.70;99.90;;;;;;5117265;28;20052;-51
2023/08/21 01:54:17;;;;;;;16.48;14.13;;;24.70;99.90;;;;;;5117128;28;20034;-51
2023/08/21 01:56:43;;;;;;;15.65;14.13;;;24.70;99.90;;;;;;5117655;28;20031;-51
2023/08/21 01:59:09;;;;;;;16.50;14.90;;;24.60;99.90;;;;;;5117212;28;20035;-52
2023/08/21 02:01:35;;;;;;;16.83;14.85;;;24.60;99.90;;;;;;5081257;28;20042;-52
2023/08/21 02:04:00;;;;;;;20.52;15.88;;;24.70;99.90;;;;;;5117428;28;20390;-54
2023/08/21 02:06:26;;;;;;;17.95;14.70;;;24.70;99.90;;;;;;5117162;28;20463;-52
2023/08/21 02:08:52;;;;;;;16.80;14.60;;;24.70;99.90;;;;;;5116908;28;20478;-52
2023/08/21 02:11:18;;;;;;;17.35;15.50;;;24.80;99.90;;;;;;5115481;28;20030;-52
2023/08/21 02:13:43;;;;;;;17.17;14.68;;;24.80;99.90;;;;;;5116775;28;20101;-52
2023/08/21 02:16:09;;;;;;;16.08;14.50;;;24.80;99.90;;;;;;5097884;28;20046;-52
2023/08/21 02:18:35;;;;;;;15.75;14.25;;;24.80;99.90;;;;;;5116670;28;20080;-52
2023/08/21 02:21:01;;;;;;;17.08;15.27;;;24.80;99.90;;;;;;5117122;28;20459;-52
2023/08/21 02:23:28;;;;;;;15.98;14.32;;;24.70;99.90;;;;;;5116887;28;20040;-52
2023/08/21 02:25:54;;;;;;;18.33;15.57;;;24.70;99.90;;;;;;5116636;28;20073;-52
2023/08/21 02:28:20;;;;;;;18.33;14.63;;;24.60;99.90;;;;;;5116332;28;20028;-52
2023/08/21 02:30:46;;;;;;;16.05;14.27;;;;;;;;;;5116647;28;20032;-51
2023/08/21 02:33:13;;;;;;;16.10;14.68;;;24.60;99.90;;;;;;5114657;28;20036;-53
2023/08/21 02:35:39;;;;;;;17.00;15.05;;;24.70;99.90;;;;;;5116623;28;20030;-52
2023/08/21 02:38:05;;;;;;;17.20;15.40;;;24.60;99.90;;;;;;5116333;28;20031;-52
2023/08/21 02:40:31;;;;;;;16.55;13.60;;;24.70;99.90;;;;;;5116545;28;20031;-52
2023/08/21 02:42:57;;;;;;;19.38;15.15;;;24.60;99.90;;;;;;5116510;28;20080;-51
2023/08/21 02:45:23;;;;;;;16.38;14.20;;;24.60;99.90;;;;;;5115895;28;20106;-52
2023/08/21 02:47:49;;;;;;;15.63;14.05;;;24.70;99.90;;;;;;5116314;28;20075;-52
2023/08/21 02:50:14;;;;;;;17.27;15.52;;;24.80;99.90;;;;;;5116232;28;20459;-52
2023/08/21 02:52:40;;;;;;;21.25;15.00;;;24.80;99.90;;;;;;5116110;28;20036;-52
2023/08/21 02:55:06;;;;;;;14.45;13.05;;;24.80;99.90;;;;;;5116316;28;20478;-52
2023/08/21 02:57:32;;;;;;;14.80;13.40;;;24.80;99.90;;;;;;5116082;28;20131;-52
2023/08/21 02:59:58;;;;;;;15.48;13.85;;;24.80;99.90;;;;;;5097090;28;20154;-52
2023/08/21 03:02:24;;;;;;;21.30;14.27;;;24.80;99.90;;;;;;5115851;28;20028;-52
2023/08/21 03:04:51;;;;;;;16.63;14.93;;;24.80;99.90;;;;;;5096862;28;20044;-51
2023/08/21 03:07:18;;;;;;;15.55;13.93;;;24.80;99.90;;;;;;5097120;28;20039;-52
2023/08/21 03:09:46;;;;;;;17.10;14.95;;;24.60;99.90;;;;;;5115660;28;20031;-51
2023/08/21 03:12:12;;;;;;;16.10;14.38;;;24.60;99.90;;;;;;5116124;28;20032;-53
2023/08/21 03:14:38;;;;;;;17.17;13.98;;;24.60;99.90;;;;;;5115482;28;20091;-52
2023/08/21 03:17:04;;;;;;;15.20;13.57;;;24.50;99.90;;;;;;5115720;28;20375;-51
2023/08/21 03:19:30;;;;;;;16.27;13.77;;;24.40;99.90;;;;;;5115757;28;20584;-52
2023/08/21 03:21:55;;;;;;;16.35;14.68;;;24.40;99.90;;;;;;5096547;28;20089;-52
2023/08/21 03:24:21;;;;;;;15.70;14.00;;;24.40;99.90;;;;;;5096515;28;20040;-52
2023/08/21 03:26:47;;;;;;;16.55;14.82;;;24.30;99.90;;;;;;5096542;28;20398;-52
2023/08/21 03:29:13;;;;;;;17.38;15.73;;;;;;;;;;5115440;28;20060;-52
2023/08/21 03:31:39;;;;;;;16.50;14.98;;;24.20;99.90;;;;;;5115250;28;20019;-52
2023/08/21 03:34:05;;;;;;;17.45;15.65;;;24.20;99.90;;;;;;5115274;28;20101;-52
2023/08/21 03:36:31;;;;;;;17.60;15.02;;;24.30;99.90;;;;;;5115381;28;20110;-51
2023/08/21 03:38:58;;;;;;;17.98;14.70;;;24.30;99.90;;;;;;5096272;28;20056;-52
2023/08/21 03:41:24;;;;;;;17.70;15.57;;;24.30;99.90;;;;;;5115034;28;20027;-52
2023/08/21 03:43:49;;;;;;;16.92;15.10;;;24.40;99.90;;;;;;5115021;28;20540;-52
2023/08/21 03:46:15;;;;;;;20.00;15.25;;;24.30;99.90;;;;;;5114953;28;20055;-52
2023/08/21 03:48:41;;;;;;;16.77;15.05;;;24.30;99.90;;;;;;5114752;28;20027;-52
2023/08/21 03:51:07;;;;;;;16.60;14.73;;;24.40;99.90;;;;;;5115043;28;20071;-52
2023/08/21 03:53:33;;;;;;;16.20;14.65;;;24.30;99.90;;;;;;5114950;28;20067;-52
2023/08/21 03:55:58;;;;;;;16.90;15.20;;;24.40;99.90;;;;;;5079103;28;20035;-52
2023/08/21 03:58:26;;;;;;;16.02;14.13;;;24.40;99.90;;;;;;5095291;28;20090;-52
2023/08/21 04:00:52;;;;;;;16.58;14.30;;;24.40;99.90;;;;;;5114676;28;20039;-52
2023/08/21 04:03:18;;;;;;;23.00;15.38;;;24.40;99.90;;;;;;5115045;28;20136;-52
2023/08/21 04:05:44;;;;;;;16.42;14.70;;;24.40;99.90;;;;;;5114601;28;20027;-51
2023/08/21 04:08:09;;;;;;;17.00;14.30;;;24.40;99.90;;;;;;5114598;28;20378;-52
2023/08/21 04:10:35;;;;;;;18.50;13.57;;;24.40;99.90;;;;;;5114626;28;20039;-52
2023/08/21 04:13:01;;;;;;;15.10;13.57;;;24.40;99.90;;;;;;5114073;28;20070;-52
2023/08/21 04:15:27;;;;;;;14.52;12.82;;;24.40;99.90;;;;;;5114824;28;20063;-52
2023/08/21 04:17:52;;;;;;;15.25;13.70;;;24.50;99.90;;;;;;5110732;28;20035;-54
2023/08/21 04:20:21;;;;;;;15.93;14.32;;;24.40;99.90;;;;;;5094192;28;20062;-52
2023/08/21 04:22:48;;;;;;;17.52;14.55;;;24.40;99.90;;;;;;5114200;28;20533;-52
2023/08/21 04:25:14;;;;;;;18.00;13.82;;;24.50;99.90;;;;;;5114592;28;20032;-52
2023/08/21 04:27:40;;;;;;;22.92;14.80;;;24.50;99.90;;;;;;5061917;28;20039;-52
2023/08/21 04:30:06;;;;;;;17.50;15.32;;;24.50;99.90;;;;;;5083139;28;20392;-52
2023/08/21 04:32:32;;;;;;;25.58;14.82;;;24.60;99.90;;;;;;5091870;28;20044;-52
2023/08/21 04:34:57;;;;;;;17.20;14.02;;;24.70;99.90;;;;;;5093691;28;20042;-52
2023/08/21 04:37:23;;;;;;;20.67;15.07;;;24.70;99.90;;;;;;5093792;28;20043;-52
2023/08/21 04:39:55;;;;;;;16.55;14.73;;;24.70;99.90;;;;;;5107147;28;20510;-51
2023/08/21 04:42:23;;;;;;;17.92;14.57;;;24.80;99.90;;;;;;5096289;28;20032;-52
2023/08/21 04:44:48;;;;;;;16.92;14.05;;;24.80;99.90;;;;;;5093543;28;20395;-52
2023/08/21 04:47:28;;;;;;;15.80;14.20;;;24.80;99.90;;;;;;5098435;28;20048;-52
2023/08/21 04:49:55;;;;;;;15.52;14.02;;;24.80;99.90;;;;;;5103375;28;20114;-52
2023/08/21 04:52:22;;;;;;;16.75;14.07;;;24.80;99.90;;;;;;5062538;28;20159;-52
2023/08/21 04:54:48;;;;;;;15.55;13.95;;;24.90;99.90;;;;;;5068716;28;20044;-52
2023/08/21 04:57:15;;;;;;;17.27;13.48;;;24.80;99.90;;;;;;5070935;28;20036;-52
2023/08/21 04:59:41;;;;;;;16.50;14.10;;;24.90;99.90;;;;;;5071034;28;20080;-52
2023/08/21 05:02:07;;;;;;;14.90;13.30;;;25.00;99.90;;;;;;5055969;28;20059;-52
2023/08/21 05:04:35;;;;;;;18.60;14.15;;;25.00;99.90;;;;;;5050992;28;20037;-54
2023/08/21 05:07:01;;;;;;;16.45;13.40;;;25.00;99.90;;;;;;5050853;28;20048;-52
2023/08/21 05:09:27;;;;;;;17.63;14.63;;;25.10;99.90;;;;;;5049720;28;20044;-52
2023/08/21 05:11:54;;;;;;;20.23;14.27;;;25.10;99.90;;;;;;5050373;28;20037;-52
2023/08/21 05:14:20;;;;;;;14.63;13.05;;;25.10;99.90;;;;;;5051607;28;20086;-52
2023/08/21 05:16:46;;;;;;;15.85;14.00;;;25.10;99.90;;;;;;5070757;28;20493;-52
2023/08/21 05:19:12;;;;;;;16.63;14.82;;;25.20;99.90;;;;;;5070524;28;20044;-54
2023/08/21 05:21:38;;;;;;;15.98;13.10;;;25.30;99.90;;;;;;5060224;28;20076;-52
2023/08/21 05:24:04;;;;;;;16.08;14.02;;;25.20;99.90;;;;;;5085031;28;20113;-52
2023/08/21 05:26:31;;;;;;;16.38;14.32;;;25.20;99.90;;;;;;5095071;28;20246;-52
2023/08/21 05:28:56;;;;;;;19.52;13.82;;;25.30;99.90;;;;;;5113489;28;20467;-52
2023/08/21 05:31:22;;;;;;;15.00;13.50;;;25.30;99.90;;;;;;5113524;28;20027;-52
2023/08/21 05:33:48;;;;;;;16.52;13.93;;;25.30;99.90;;;;;;5112954;28;20390;-52
2023/08/21 05:36:14;;;;;;;16.20;13.82;;;25.50;99.90;;;;;;5113136;28;20428;-52
2023/08/21 05:38:40;;;;;;;14.25;12.63;;;25.60;99.90;;;;;;5075253;28;20417;-52
2023/08/21 05:41:06;;;;;;;16.67;13.13;;;25.50;99.90;;;;;;5081769;28;20512;-52
2023/08/21 05:43:32;;;;;;;16.02;13.05;;;25.60;99.90;;;;;;5096029;28;20063;-52
2023/08/21 05:45:57;;;;;;;15.27;13.32;;;25.70;99.90;;;;;;5080886;28;20071;-52
2023/08/21 05:48:23;;;;;;;15.65;13.43;;;25.70;99.90;;;;;;5079795;28;20102;-51
2023/08/21 05:50:52;;;;;;;12.77;10.57;;;25.60;99.90;;;;;;5079606;28;20040;-51
2023/08/21 05:53:18;;;;;;;16.55;13.35;;;25.60;99.90;;;;;;5080806;28;20040;-52
2023/08/21 05:55:44;;;;;;;13.18;11.75;;;25.80;99.90;;;;;;5080335;28;20487;-52
2023/08/21 05:58:10;;;;;;;15.15;13.10;;;25.70;99.90;;;;;;5079216;28;20468;-52
2023/08/21 06:00:38;;;;;;;14.30;12.80;;;25.90;99.90;;;;;;5082150;28;20035;-52
2023/08/21 06:03:04;;;;;;;14.35;12.77;;;26.10;99.90;;;;;;5080844;28;20065;-51
2023/08/21 06:05:30;;;;;;;14.32;12.93;;;26.10;99.90;;;;;;5078925;28;20033;-52
2023/08/21 06:07:56;;;;;;;17.27;13.70;;;26.00;99.90;;;;;;5080044;28;20032;-52
2023/08/21 06:10:22;;;;;;;15.90;13.23;;;26.30;99.90;;;;;;5098680;28;20179;-52
2023/08/21 06:12:48;;;;;;;15.65;13.50;;;26.30;99.90;;;;;;5100580;28;20421;-52
2023/08/21 06:15:14;;;;;;;15.48;13.02;;;26.40;99.90;;;;;;5095432;28;20034;-52
2023/08/21 06:17:41;;;;;;;16.48;13.10;;;26.50;99.90;;;;;;5096276;28;20383;-52
2023/08/21 06:20:11;;;;;;;15.43;12.85;;;26.40;99.90;;;;;;5094188;28;20039;-52
2023/08/21 06:22:37;;;;;;;15.32;13.27;;;26.50;99.90;;;;;;5096816;28;20414;-52
2023/08/21 06:25:04;;;;;;;17.38;12.85;;;26.50;99.90;;;;;;5096315;28;20024;-52
2023/08/21 06:27:30;;;;;;;15.10;13.52;;;26.60;99.90;;;;;;5096147;28;20027;-52
2023/08/21 06:29:55;;;;;;;16.77;12.45;;;26.60;99.90;;;;;;5096296;28;20023;-52
2023/08/21 06:32:21;;;;;;;21.20;13.93;;;26.60;99.90;;;;;;5093962;28;20044;-53
2023/08/21 06:34:47;;;;;;;15.60;13.50;;;26.50;99.90;;;;;;5077584;28;20040;-52
2023/08/21 06:37:13;;;;;;;15.70;13.88;;;26.60;99.90;;;;;;5094258;28;20036;-53
2023/08/21 06:39:38;;;;;;;16.80;13.02;;;26.60;99.90;;;;;;5095994;28;20036;-54
2023/08/21 06:42:05;;;;;;;16.38;13.57;;;26.70;99.90;;;;;;5096077;28;20024;-51
2023/08/21 06:44:30;;;;;;;16.05;14.45;;;26.80;99.90;;;;;;5077103;28;20391;-52
2023/08/21 06:46:56;;;;;;;17.17;14.13;;;26.90;99.90;;;;;;5095575;28;20056;-52
2023/08/21 06:49:22;;;;;;;19.33;13.50;;;26.90;99.90;;;;;;5095804;28;20040;-52
2023/08/21 06:51:48;;;;;;;15.63;13.13;;;27.20;99.90;;;;;;5094010;28;20070;-52
2023/08/21 06:54:13;;;;;;;15.70;13.75;;;27.20;99.90;;;;;;5095740;28;20036;-52
2023/08/21 06:56:39;;;;;;;19.85;14.25;;;27.20;99.90;;;;;;5095781;28;20039;-52
2023/08/21 06:59:05;;;;;;;17.73;13.48;;;27.40;99.90;;;;;;5095679;28;20075;-52
2023/08/21 07:01:31;;;;;;;19.63;14.23;;;27.50;99.90;;;;;;5095471;28;20070;-53
2023/08/21 07:03:57;;;;;;;20.15;12.70;;;27.50;99.90;;;;;;5096015;28;20032;-53
2023/08/21 07:06:22;;;;;;;13.93;12.38;;;27.50;99.90;;;;;;5095586;28;20099;-53
2023/08/21 07:08:48;;;;;;;15.05;12.80;;;;;;;;;;5095466;28;20026;-52
2023/08/21 07:11:17;;;;;;;14.25;12.70;;;;;;;;;;5095843;28;20048;-52
2023/08/21 07:13:43;;;;;;;17.15;14.00;;;;;;;;;;5095375;28;20028;-52
2023/08/21 07:16:09;;;;;;;17.17;13.32;;;28.20;99.90;;;;;;5095254;28;20471;-52
2023/08/21 07:18:35;;;;;;;21.05;13.02;;;28.30;99.90;;;;;;5095112;28;20038;-52
2023/08/21 07:21:04;;;;;;;19.55;12.88;;;28.20;99.90;;;;;;5095295;28;20058;-52
2023/08/21 07:23:31;;;;;;;15.38;12.13;;;28.30;99.90;;;;;;5095442;28;20459;-52
2023/08/21 07:25:58;;;;;;;17.38;12.85;;;;;;;;;;5076519;28;20065;-52
2023/08/21 07:28:23;;;;;;;20.60;13.02;;;28.70;99.90;;;;;;5095076;28;20085;-52
2023/08/21 07:30:57;;;;;;;13.27;11.88;;;28.80;99.90;;;;;;5095352;28;20574;-52
2023/08/21 07:33:27;;;;;;;17.02;13.52;;;28.80;99.90;;;;;;5094343;28;20349;-52
2023/08/21 07:36:01;;;;;;;18.42;12.43;;;;;;;;;;5093031;28;20040;-52
2023/08/21 07:38:27;;;;;;;24.52;12.70;;;29.10;99.90;;;;;;5094891;28;20134;-52
2023/08/21 07:41:03;;;;;;;15.80;11.45;;;29.10;99.90;;;;;;5110443;28;20522;-52
2023/08/21 07:43:29;;;;;;;17.13;12.05;;;;;;;;;;5107920;28;20028;-51
2023/08/21 07:45:54;;;;;;;13.60;12.30;;;29.10;99.90;;;;;;5103406;28;20028;-52
2023/08/21 07:48:20;;;;;;;17.95;12.73;;;29.20;99.90;;;;;;5104515;28;20101;-52
2023/08/21 07:50:53;;;;;;;19.38;12.02;;;29.20;99.90;;;;;;5107295;28;20043;-52
2023/08/21 07:53:19;;;;;;;15.50;12.20;;;29.40;99.90;;;;;;5111200;28;20035;-52
2023/08/21 07:55:45;;;;;;;19.15;11.88;;;29.40;99.90;;;;;;5094678;28;20468;-52
2023/08/21 07:58:11;;;;;;;23.73;11.95;;;29.50;99.90;;;;;;5111774;28;20042;-52
2023/08/21 08:00:38;;;;;;;20.95;13.05;;;29.60;99.90;;;;;;5114972;28;20032;-52
2023/08/21 08:03:05;;;;;;;15.60;12.63;;;29.80;99.90;;;;;;5114955;28;20043;-52
2023/08/21 08:05:31;;;;;;;16.00;11.25;;;;;;;;;;5114816;28;20043;-52
2023/08/21 08:07:57;;;;;;;18.42;12.57;;;30.00;99.90;;;;;;5114959;28;20198;-52
2023/08/21 08:10:24;;;;;;;12.93;11.63;;;;;;;;;;5112934;28;20403;-52
2023/08/21 08:12:50;;;;;;;16.92;11.35;;;30.20;99.90;;;;;;5114870;28;20099;-52
2023/08/21 08:15:17;;;;;;;22.02;12.93;;;30.40;99.90;;;;;;5095757;28;20468;-52
2023/08/21 08:17:45;;;;;;;24.23;12.10;;;30.40;99.90;;;;;;5114549;28;20460;-52
2023/08/21 08:20:12;;;;;;;16.40;12.02;;;30.40;99.90;;;;;;5112320;28;20395;-52
2023/08/21 08:22:39;;;;;;;20.10;11.85;;;30.30;99.90;;;;;;5114046;28;20028;-52
2023/08/21 08:25:05;;;;;;;18.20;11.23;;;30.50;99.90;;;;;;5114308;28;20387;-52
2023/08/21 08:27:32;;;;;;;18.05;12.05;;;;;;;;;;5114236;28;20035;-52
2023/08/21 08:29:58;;;;;;;15.75;12.00;;;;;;;;;;5114498;28;20118;-52
2023/08/21 08:32:25;;;;;;;20.63;12.10;;;31.10;99.90;;;;;;5107767;28;20363;-53
2023/08/21 08:34:52;;;;;;;15.38;11.63;;;31.10;99.90;;;;;;5102971;28;20115;-53
2023/08/21 08:37:18;;;;;;;12.52;10.90;;;31.20;99.90;;;;;;5103259;27;20114;-53
2023/08/21 08:39:46;;;;;;;21.30;11.52;;;31.40;99.90;;;;;;5104668;28;20419;-52
2023/08/21 08:42:12;;;;;;;15.07;11.32;;;31.40;99.90;;;;;;5093765;28;20124;-55
2023/08/21 08:44:40;;;;;;;18.17;11.07;;;31.70;99.90;;;;;;5110960;28;20039;-52
2023/08/21 08:47:07;;;;;;;19.33;11.45;;;31.80;99.90;;;;;;5102989;28;20035;-53
2023/08/21 08:49:33;;;;;;;18.08;10.90;;;;;;;;;;5093036;28;20109;-53
2023/08/21 08:52:00;;;;;;;18.60;11.30;;;32.50;99.90;;;;;;5100947;28;20060;-53
2023/08/21 08:54:27;;;;;;;17.73;11.32;;;32.50;99.90;;;;;;5095022;28;20143;-53
2023/08/21 08:56:53;;;;;;;15.15;11.15;;;32.90;99.90;;;;;;5113868;28;20359;-52
2023/08/21 08:59:20;;;;;;;12.00;9.93;;;;;;;;;;5078008;28;20043;-53
2023/08/21 09:01:46;;;;;;;12.38;11.05;;;;;;;;;;5113904;28;20027;-53
2023/08/21 09:04:12;;;;;;;15.30;9.63;;;;;;;;;;5113568;28;20039;-52
2023/08/21 09:06:39;;;;;;;14.00;11.07;;;;;;;;;;5113760;28;20039;-53
2023/08/21 09:09:24;;;;;;;15.98;9.35;;;35.90;99.90;;;;;;5090978;28;20101;-52
2023/08/21 09:11:51;;;;;;;17.27;9.75;;;33.90;99.90;;;;;;5091391;28;20503;-52
2023/08/21 09:14:26;;;;;;;11.52;10.40;;;34.30;99.90;;;;;;5090771;28;20087;-52
2023/08/21 09:17:03;;;;;;;16.40;10.68;;;34.30;99.90;;;;;;5091346;28;20028;-52
2023/08/21 09:19:29;;;;;;;12.52;10.80;;;34.50;99.90;;;;;;5090989;28;20539;-52
2023/08/21 09:21:54;;;;;;;11.38;9.15;;;34.50;99.90;;;;;;5040742;28;20052;-54
2023/08/21 09:24:20;;;;;;;10.20;9.20;;;34.60;99.90;;;;;;5091081;28;20040;-53
2023/08/21 09:26:47;;;;;;;15.73;9.70;;;34.50;99.90;;;;;;5090849;28;20400;-53
2023/08/21 09:29:13;;;;;;;13.32;9.18;;;34.40;99.90;;;;;;5089394;28;20040;-53
2023/08/21 09:31:38;;;;;;;11.35;8.82;;;34.80;99.90;;;;;;5088750;28;20078;-51
2023/08/21 09:34:05;;;;;;;10.63;9.50;;;34.60;99.90;;;;;;5035235;28;20174;-52
2023/08/21 09:36:31;;;;;;;10.73;8.65;;;34.30;99.90;;;;;;5057381;28;20035;-50
2023/08/21 09:38:57;;;;;;;10.05;9.05;;;34.50;99.90;;;;;;5090345;28;20051;-52
2023/08/21 09:41:26;;;;;;;11.40;8.73;;;34.60;99.90;;;;;;5098930;28;20047;-54
2023/08/21 09:43:52;;;;;;;8.43;7.55;;;34.90;99.90;;;;;;5102040;28;20020;-52
2023/08/21 09:46:24;;;;;;;9.85;8.02;;;;;;;;;;5103676;28;20032;-53
2023/08/21 09:48:51;;;;;;;10.32;8.77;;;35.60;99.90;;;;;;5110800;28;20403;-53
2023/08/21 09:51:17;;;;;;;9.88;8.38;;;35.40;99.90;;;;;;5110739;28;20020;-53
2023/08/21 09:53:43;;;;;;;8.98;8.02;;;35.20;99.90;;;;;;5112511;28;20032;-52
2023/08/21 09:56:09;;;;;;;9.70;8.25;;;35.20;99.90;;;;;;5108251;28;20038;-54
2023/08/21 09:58:36;;;;;;;14.63;7.35;;;35.20;99.90;;;;;;5107433;28;20066;-52
2023/08/21 10:01:14;;;;;;;9.70;8.70;;;35.60;99.90;;;;;;5092939;28;20536;-53
2023/08/21 10:03:41;;;;;;;9.32;7.57;;;35.80;99.90;;;;;;5089343;28;20040;-55
2023/08/21 10:06:11;;;;;;;8.43;7.28;;;36.00;99.90;;;;;;5111312;28;20122;-53
2023/08/21 10:08:40;;;;;;;12.77;7.18;;;36.40;99.90;;;;;;5117376;28;20475;-55
2023/08/21 10:11:09;;;;;;;10.60;7.68;;;36.70;99.90;;;;;;5117230;28;20032;-55
2023/08/21 10:13:37;;;;;;;10.43;8.52;;;;;;;;;;5105797;28;20418;-54
2023/08/21 10:16:05;;;;;;;9.68;8.23;;;37.20;99.90;;;;;;5096842;28;20048;-52
2023/08/21 10:18:35;;;;;;;10.40;7.40;;;37.20;99.90;;;;;;5102202;28;20043;-53
2023/08/21 10:21:17;;;;;;;8.95;8.13;;;37.30;99.90;;;;;;5117071;28;20027;-53
2023/08/21 10:23:49;;;;;;;9.40;8.40;;;37.50;99.90;;;;;;5109376;28;20027;-53
2023/08/21 10:26:18;;;;;;;9.38;7.93;;;37.20;99.90;;;;;;5095443;28;20068;-54
2023/08/21 10:28:59;;;;;;;8.90;7.95;;;37.40;99.90;;;;;;5105992;28;20119;-53
2023/08/21 10:31:40;;;;;;;14.13;8.10;;;37.60;99.90;;;;;;5105736;28;20028;-54
2023/08/21 10:34:06;;;;;;;;;;;;;;;;;;5115459;28;20375;-53
2023/08/21 10:36:44;;;;;;;9.77;7.72;;;;;;;;;;5115941;28;20594;-54
2023/08/21 10:39:24;;;;;;;10.02;8.23;;;37.90;99.90;;;;;;5115510;28;20391;-54
2023/08/21 10:41:56;;;;;;;10.07;7.82;;;;;;;;;;5114660;28;20031;-53
2023/08/21 10:44:37;;;;;;;12.88;8.18;;;37.10;99.90;;;;;;5116586;28;20028;-53
2023/08/21 10:47:16;;;;;;;9.35;7.30;;;37.20;99.90;;;;;;5116857;28;20395;-53
2023/08/21 10:49:44;;;;;;;10.23;7.68;;;37.60;99.90;;;;;;5116101;28;20052;-53
2023/08/21 10:52:09;;;;;;;12.43;7.20;;;37.30;99.90;;;;;;5116272;28;20089;-53
2023/08/21 10:54:49;;;;;;;11.48;7.63;;;;;;;;;;5116050;28;20035;-53
2023/08/21 10:57:15;;;;;;;10.95;7.05;;;;;;;;;;5116439;28;20046;-53
2023/08/21 10:59:53;;;;;;;10.27;7.57;;;;;;;;;;5115905;28;20077;-53
2023/08/21 11:02:19;;;;;;;9.18;7.32;;;38.40;99.90;;;;;;5114316;28;20028;-54
2023/08/21 11:04:45;;;;;;;11.15;7.53;;;38.70;99.90;;;;;;5116107;28;20121;-53
2023/08/21 11:07:12;;;;;;;8.85;7.68;;;;;;;;;;5114156;28;20040;-53
2023/08/21 11:09:38;;;;;;;8.75;7.88;;;38.50;99.90;;;;;;5116130;28;20125;-53
2023/08/21 11:12:08;;;;;;;9.40;7.45;;;;;;;;;;5116084;28;20080;-53
2023/08/21 11:14:35;;;;;;;9.17;7.80;;;;;;;;;;5116060;28;20352;-53
2023/08/21 11:17:01;;;;;;;9.48;7.78;;;;;;;;;;5115878;28;20028;-53
2023/08/21 11:19:29;;;;;;;11.02;8.32;;;38.20;99.90;;;;;;5115556;27;20140;-54
2023/08/21 11:21:55;;;;;;;12.07;7.53;;;38.00;99.90;;;;;;5115864;28;20024;-53
2023/08/21 11:24:21;;;;;;;8.38;7.10;;;38.40;99.90;;;;;;5092035;28;20142;-53
2023/08/21 11:26:47;;;;;;;9.60;6.50;;;;;;;;;;5107141;28;20048;-53
2023/08/21 11:29:13;;;;;;;11.95;7.18;;;38.50;99.80;;;;;;5110225;28;20055;-54
2023/08/21 11:31:40;;;;;;;18.48;7.40;;;38.60;99.80;;;;;;5105732;28;20055;-54
2023/08/21 11:34:06;;;;;;;8.55;7.28;;;38.60;99.70;;;;;;5105575;27;20360;-54
2023/08/21 11:36:32;;;;;;;9.07;7.25;;;;;;;;;;5108406;28;20027;-55
2023/08/21 11:39:00;;;;;;;9.10;7.45;;;38.80;99.30;;;;;;5104816;28;20054;-54
2023/08/21 11:41:26;;;;;;;14.95;8.35;;;38.60;99.80;;;;;;5099811;28;20032;-54
2023/08/21 11:43:51;;;;;;;13.15;7.95;;;38.60;99.10;;;;;;5105326;28;20474;-54
2023/08/21 11:46:18;;;;;;;12.07;8.57;;;;;;;;;;5087212;28;20044;-54
2023/08/21 11:48:45;;;;;;;11.80;8.80;;;39.00;99.10;;;;;;5103484;28;20048;-55
2023/08/21 11:51:10;;;;;;;9.45;7.95;;;38.40;99.00;;;;;;5105414;28;20055;-53
2023/08/21 11:53:41;;;;;;;16.95;8.18;;;38.30;99.20;;;;;;5102997;28;20085;-55
2023/08/21 11:56:15;;;;;;;11.48;8.35;;;38.40;99.50;;;;;;5089941;28;20118;-58
2023/08/21 11:58:42;;;;;;;11.90;7.45;;;38.80;98.90;;;;;;5085970;28;20067;-55
2023/08/21 12:01:09;;;;;;;14.40;7.82;;;39.10;99.30;;;;;;5107198;28;20028;-54
2023/08/21 12:03:39;;;;;;;14.35;8.63;;;39.20;98.10;;;;;;5102904;28;20437;-54
2023/08/21 12:06:09;;;;;;;10.80;8.38;;;38.90;97.70;;;;;;5104537;28;20081;-55
2023/08/21 12:08:35;;;;;;;13.25;8.93;;;;;;;;;;5093700;28;20035;-55
2023/08/21 12:11:02;;;;;;;14.52;8.38;;;;;;;;;;5103098;28;20032;-54
2023/08/21 12:13:28;;;;;;;10.27;7.65;;;;;;;;;;5103369;28;20035;-55
2023/08/21 12:15:55;;;;;;;9.95;7.78;;;39.70;99.90;;;;;;5111917;28;20063;-55
2023/08/21 12:18:21;;;;;;;12.07;7.90;;;39.70;99.90;;;;;;5084492;28;20031;-53
2023/08/21 12:20:47;;;;;;;10.13;7.20;;;38.90;99.20;;;;;;5104633;28;20038;-54
2023/08/21 12:23:13;;;;;;;8.20;7.28;;;38.30;99.90;;;;;;5106371;27;20383;-55
2023/08/21 12:25:38;;;;;;;13.43;7.47;;;37.60;99.90;;;;;;5114588;28;20036;-54
2023/08/21 12:28:06;;;;;;;8.45;7.50;;;37.50;99.90;;;;;;5114327;28;20024;-54
2023/08/21 12:30:31;;;;;;;7.75;6.90;;;37.20;99.90;;;;;;5114454;28;20039;-54
2023/08/21 12:32:57;;;;;;;10.18;7.32;;;37.30;99.90;;;;;;5110825;28;20168;-54
2023/08/21 12:35:23;;;;;;;9.88;7.68;;;37.60;99.90;;;;;;5105440;28;20554;-54
2023/08/21 12:37:49;;;;;;;10.65;7.93;;;37.80;99.90;;;;;;5114626;28;20059;-54
2023/08/21 12:40:14;;;;;;;7.65;6.63;;;38.00;99.90;;;;;;5093884;28;20092;-53
2023/08/21 12:42:40;;;;;;;9.88;7.35;;;38.20;99.90;;;;;;5098954;28;20040;-54
2023/08/21 12:45:07;;;;;;;8.20;7.30;;;37.90;99.90;;;;;;5113964;28;20122;-54
2023/08/21 12:47:33;;;;;;;7.90;6.93;;;37.70;99.90;;;;;;5113986;28;20039;-54
2023/08/21 12:49:59;;;;;;;20.73;8.15;;;37.70;99.90;;;;;;5112844;28;20363;-54